Time;durP1;ratioP1;P1;durP2;ratioP2;P2;SDS_P1;SDS_P2;PMS_P1;PMS_P2;Temp;Humidity;BMP_temperature;BMP_pressure;BME280_temperature;BME280_humidity;BME280_pressure;Samples;Min_cycle;Max_cycle;Signal;HPM_P1;HPM_P2
2021/10/30 00:01:43;;;;;;;14.83;9.33;;;4.90;99.10;;;;;;5059979;28;20210;-88
2021/10/30 00:04:11;;;;;;;46.57;10.03;;;5.10;99.00;;;;;;5056170;28;20291;-89
2021/10/30 00:06:37;;;;;;;142.10;13.73;;;5.20;98.60;;;;;;5043037;28;20218;-88
2021/10/30 00:09:06;;;;;;;14.77;9.03;;;5.20;98.10;;;;;;5047489;28;20218;-89
2021/10/30 00:11:33;;;;;;;20.50;9.10;;;5.20;98.30;;;;;;5046166;28;20202;-88
2021/10/30 00:14:00;;;;;;;19.73;9.10;;;5.30;98.30;;;;;;5051634;28;20222;-88
2021/10/30 00:16:27;;;;;;;15.77;9.40;;;5.20;98.20;;;;;;5053063;28;20198;-88
2021/10/30 00:18:54;;;;;;;22.83;9.70;;;5.30;98.40;;;;;;5049256;28;20225;-90
2021/10/30 00:21:21;;;;;;;37.03;9.77;;;5.40;98.10;;;;;;5046306;28;20205;-88
2021/10/30 00:23:48;;;;;;;49.97;10.10;;;5.30;97.90;;;;;;5051541;28;20234;-88
2021/10/30 00:26:17;;;;;;;47.30;10.27;;;5.20;97.80;;;;;;5049128;28;20664;-87
2021/10/30 00:28:45;;;;;;;37.00;10.23;;;5.30;97.70;;;;;;5048413;28;20593;-88
2021/10/30 00:31:12;;;;;;;33.50;10.33;;;5.30;97.60;;;;;;5045888;28;20229;-87
2021/10/30 00:33:39;;;;;;;54.73;11.97;;;5.20;97.70;;;;;;5054578;28;20240;-90
2021/10/30 00:36:06;;;;;;;51.90;10.87;;;5.10;98.30;;;;;;5051973;28;20193;-87
2021/10/30 00:38:33;;;;;;;99.63;12.03;;;5.10;98.70;;;;;;5052150;28;20233;-87
2021/10/30 00:41:04;;;;;;;20.47;9.87;;;5.00;98.70;;;;;;5059930;28;20864;-87
2021/10/30 00:43:33;;;;;;;151.97;14.87;;;5.00;98.90;;;;;;5043138;28;20269;-87
2021/10/30 00:46:00;;;;;;;165.23;14.20;;;4.80;98.70;;;;;;5053057;28;20725;-88
2021/10/30 00:48:27;;;;;;;40.07;10.17;;;4.90;98.80;;;;;;5053015;28;20241;-87
2021/10/30 00:50:56;;;;;;;34.27;10.30;;;5.00;98.80;;;;;;5053317;28;20210;-88
2021/10/30 00:53:29;;;;;;;20.47;10.77;;;4.90;98.60;;;;;;5048144;28;20253;-87
2021/10/30 00:56:00;;;;;;;127.60;12.47;;;4.90;99.00;;;;;;5050665;28;20225;-88
2021/10/30 00:58:29;;;;;;;117.27;13.33;;;4.80;99.10;;;;;;5054243;28;20221;-88
2021/10/30 01:00:59;;;;;;;17.43;9.70;;;4.90;99.60;;;;;;5050202;28;20210;-87
2021/10/30 01:03:26;;;;;;;68.13;10.83;;;5.10;99.40;;;;;;5056098;28;20725;-88
2021/10/30 01:05:53;;;;;;;43.07;22.23;;;5.10;98.90;;;;;;5046387;28;20268;-88
2021/10/30 01:08:22;;;;;;;60.90;35.00;;;5.20;99.10;;;;;;5063487;28;20680;-87
2021/10/30 01:10:49;;;;;;;64.37;17.70;;;5.40;99.40;;;;;;5048623;28;20218;-87
2021/10/30 01:13:17;;;;;;;36.23;14.20;;;5.40;98.80;;;;;;5053242;28;20561;-88
2021/10/30 01:15:44;;;;;;;22.03;13.00;;;5.50;98.90;;;;;;5048666;28;20228;-87
2021/10/30 01:18:12;;;;;;;22.87;11.33;;;5.50;98.60;;;;;;5043307;28;20222;-87
2021/10/30 01:20:41;;;;;;;22.17;12.70;;;5.60;98.30;;;;;;5046064;28;20699;-88
2021/10/30 01:23:08;;;;;;;31.83;14.83;;;5.60;98.40;;;;;;5048802;28;20217;-87
2021/10/30 01:25:35;;;;;;;19.77;11.93;;;5.60;98.10;;;;;;5045216;28;20229;-88
2021/10/30 01:28:02;;;;;;;91.90;13.50;;;5.60;98.10;;;;;;5052966;28;20245;-88
2021/10/30 01:30:29;;;;;;;34.23;10.27;;;5.60;98.00;;;;;;5041414;28;20215;-88
2021/10/30 01:32:58;;;;;;;87.30;12.57;;;5.50;97.80;;;;;;5041193;28;20225;-87
2021/10/30 01:35:31;;;;;;;214.60;14.93;;;5.40;97.80;;;;;;5040636;28;20216;-88
2021/10/30 01:38:00;;;;;;;145.33;13.23;;;5.30;97.70;;;;;;5041810;28;20226;-87
2021/10/30 01:40:28;;;;;;;20.47;12.80;;;5.10;97.90;;;;;;5044424;28;20566;-88
2021/10/30 01:42:57;;;;;;;76.17;10.67;;;5.20;99.20;;;;;;5043767;28;20573;-87
2021/10/30 01:45:24;;;;;;;112.33;11.27;;;5.30;99.20;;;;;;5048123;28;20225;-88
2021/10/30 01:47:51;;;;;;;121.50;10.43;;;5.20;98.30;;;;;;5051054;28;20238;-87
2021/10/30 01:50:18;;;;;;;20.10;7.80;;;5.00;97.70;;;;;;5042750;28;20202;-87
2021/10/30 01:52:46;;;;;;;36.03;8.80;;;5.00;98.10;;;;;;5033776;28;20234;-87
2021/10/30 01:55:16;;;;;;;28.43;7.53;;;4.90;98.00;;;;;;5042308;28;20198;-89
2021/10/30 01:57:44;;;;;;;27.63;11.93;;;4.80;98.40;;;;;;5046511;28;20229;-87
2021/10/30 02:00:11;;;;;;;43.73;9.67;;;4.90;99.40;;;;;;5038806;28;20201;-88
2021/10/30 02:02:38;;;;;;;17.20;8.77;;;4.90;98.80;;;;;;5043176;28;20225;-87
2021/10/30 02:05:06;;;;;;;26.60;11.33;;;4.90;98.70;;;;;;5048754;28;20217;-86
2021/10/30 02:07:33;;;;;;;29.00;10.20;;;4.90;98.50;;;;;;5041809;28;20229;-87
2021/10/30 02:10:00;;;;;;;25.00;10.50;;;4.90;98.40;;;;;;5042895;28;20206;-88
2021/10/30 02:12:28;;;;;;;62.17;12.40;;;4.90;98.20;;;;;;5046263;28;20232;-88
2021/10/30 02:14:55;;;;;;;27.23;11.40;;;4.80;98.10;;;;;;5051095;28;20213;-85
2021/10/30 02:17:22;;;;;;;76.67;14.00;;;4.60;98.10;;;;;;5043588;28;20226;-88
2021/10/30 02:19:49;;;;;;;61.83;13.27;;;4.50;98.50;;;;;;5056854;28;20219;-83
2021/10/30 02:22:17;;;;;;;37.20;12.40;;;4.40;98.90;;;;;;5053379;28;20235;-85
2021/10/30 02:24:44;;;;;;;26.47;11.60;;;4.60;99.50;;;;;;5053002;28;20222;-88
2021/10/30 02:27:11;;;;;;;13.97;11.90;;;4.60;99.10;;;;;;5048655;28;20216;-85
2021/10/30 02:29:39;;;;;;;21.60;11.40;;;4.70;99.10;;;;;;5051644;28;20198;-87
2021/10/30 02:32:08;;;;;;;13.47;10.60;;;4.80;99.00;;;;;;5058371;28;20204;-85
2021/10/30 02:34:35;;;;;;;12.47;10.17;;;5.00;98.70;;;;;;5048448;28;20639;-89
2021/10/30 02:37:03;;;;;;;21.77;10.77;;;5.00;98.30;;;;;;5038124;28;20198;-87
2021/10/30 02:39:30;;;;;;;13.07;10.13;;;5.00;97.70;;;;;;5043727;28;20225;-87
2021/10/30 02:41:57;;;;;;;78.07;12.13;;;5.00;97.70;;;;;;5047627;28;20209;-87
2021/10/30 02:44:24;;;;;;;24.47;10.40;;;5.00;97.70;;;;;;5052053;28;20225;-87
2021/10/30 02:46:53;;;;;;;14.07;10.43;;;5.00;98.50;;;;;;5048172;28;20263;-86
2021/10/30 02:49:20;;;;;;;16.93;10.10;;;5.00;98.20;;;;;;5053402;28;20244;-86
2021/10/30 02:51:46;;;;;;;23.63;11.37;;;5.10;97.70;;;;;;5047498;28;20577;-86
2021/10/30 02:54:13;;;;;;;29.53;11.07;;;5.10;98.10;;;;;;5053705;28;20221;-87
2021/10/30 02:56:40;;;;;;;14.00;10.87;;;5.10;97.70;;;;;;5044575;28;20221;-88
2021/10/30 02:59:07;;;;;;;22.67;10.43;;;5.10;97.70;;;;;;5045918;28;20225;-87
2021/10/30 03:01:34;;;;;;;13.83;10.63;;;5.10;97.70;;;;;;5049518;28;20212;-86
2021/10/30 03:04:03;;;;;;;30.23;10.60;;;5.10;97.40;;;;;;5042628;28;20231;-87
2021/10/30 03:06:31;;;;;;;32.33;10.43;;;5.10;97.40;;;;;;5042667;28;20207;-87
2021/10/30 03:08:59;;;;;;;36.60;11.27;;;5.10;97.10;;;;;;5049416;28;20241;-87
2021/10/30 03:11:26;;;;;;;15.23;9.97;;;5.10;97.10;;;;;;5052298;28;20201;-86
2021/10/30 03:13:52;;;;;;;31.83;9.77;;;5.10;97.20;;;;;;5042844;28;20717;-87
2021/10/30 03:16:19;;;;;;;20.23;10.00;;;5.00;97.00;;;;;;5054054;28;20599;-87
2021/10/30 03:18:46;;;;;;;12.97;9.27;;;5.00;96.90;;;;;;5055196;28;20232;-87
2021/10/30 03:21:15;;;;;;;21.47;9.33;;;5.00;96.90;;;;;;5048773;28;20293;-87
2021/10/30 03:23:42;;;;;;;89.80;10.30;;;4.80;96.70;;;;;;5045583;28;20308;-87
2021/10/30 03:26:08;;;;;;;91.43;9.93;;;4.60;96.40;;;;;;5039598;28;20221;-87
2021/10/30 03:28:35;;;;;;;16.77;8.47;;;4.40;96.50;;;;;;5046901;28;20734;-87
2021/10/30 03:31:03;;;;;;;36.63;9.13;;;4.50;97.60;;;;;;5045236;28;20267;-87
2021/10/30 03:33:30;;;;;;;13.03;7.70;;;4.60;98.10;;;;;;5041571;28;20225;-88
2021/10/30 03:35:57;;;;;;;20.60;8.40;;;4.60;97.80;;;;;;5045498;28;20206;-87
2021/10/30 03:38:25;;;;;;;37.73;7.60;;;4.70;97.60;;;;;;5040801;28;20678;-87
2021/10/30 03:40:52;;;;;;;44.23;8.27;;;4.70;97.00;;;;;;5041280;28;20213;-87
2021/10/30 03:43:19;;;;;;;61.00;8.13;;;4.60;97.20;;;;;;5045919;28;20222;-86
2021/10/30 03:45:46;;;;;;;102.00;10.13;;;4.50;96.80;;;;;;5042937;28;20230;-87
2021/10/30 03:48:13;;;;;;;50.90;8.03;;;4.20;96.30;;;;;;5033925;28;20586;-87
2021/10/30 03:50:40;;;;;;;28.83;7.50;;;4.20;97.60;;;;;;5036446;28;20210;-87
2021/10/30 03:53:07;;;;;;;18.60;6.83;;;4.10;97.50;;;;;;5044369;28;20662;-87
2021/10/30 03:55:36;;;;;;;76.60;8.67;;;4.20;97.50;;;;;;5044935;28;20208;-87
2021/10/30 03:58:03;;;;;;;58.57;8.57;;;4.10;96.50;;;;;;5035747;28;20242;-87
2021/10/30 04:00:30;;;;;;;38.00;7.23;;;4.10;96.80;;;;;;5045628;28;20205;-86
2021/10/30 04:02:57;;;;;;;27.13;7.40;;;3.90;96.70;;;;;;5045917;28;20242;-86
2021/10/30 04:05:24;;;;;;;31.07;7.90;;;3.90;96.90;;;;;;5046026;28;20623;-86
2021/10/30 04:07:51;;;;;;;50.20;8.50;;;4.00;97.10;;;;;;5038640;28;20234;-86
2021/10/30 04:10:18;;;;;;;34.60;7.70;;;4.00;97.40;;;;;;5042652;28;20217;-86
2021/10/30 04:12:47;;;;;;;64.20;8.77;;;4.00;97.30;;;;;;5060516;28;20240;-86
2021/10/30 04:15:13;;;;;;;12.30;6.90;;;4.00;97.40;;;;;;5044916;28;20198;-87
2021/10/30 04:17:40;;;;;;;48.67;7.73;;;3.90;96.80;;;;;;5037333;28;20237;-86
2021/10/30 04:20:09;;;;;;;72.47;10.70;;;3.80;96.80;;;;;;5041794;28;20201;-87
2021/10/30 04:22:36;;;;;;;7.87;6.77;;;3.70;97.00;;;;;;5057258;28;20222;-88
2021/10/30 04:25:03;;;;;;;21.23;6.43;;;3.80;97.40;;;;;;5044356;28;20220;-86
2021/10/30 04:27:30;;;;;;;21.77;7.00;;;3.90;97.50;;;;;;5059735;28;20772;-86
2021/10/30 04:29:58;;;;;;;17.70;6.20;;;4.00;97.30;;;;;;5056438;28;20221;-88
2021/10/30 04:32:25;;;;;;;12.37;7.00;;;4.00;97.20;;;;;;5038192;28;20275;-86
2021/10/30 04:34:58;;;;;;;43.80;7.87;;;4.00;97.10;;;;;;5058480;28;20229;-87
2021/10/30 04:37:25;;;;;;;45.93;7.43;;;3.90;96.10;;;;;;5050192;28;20230;-86
2021/10/30 04:39:53;;;;;;;22.27;6.80;;;3.50;95.80;;;;;;5059912;28;20198;-85
2021/10/30 04:42:20;;;;;;;13.27;6.53;;;3.20;96.50;;;;;;5054032;28;20233;-86
2021/10/30 04:44:48;;;;;;;11.40;6.90;;;3.20;97.70;;;;;;5047918;28;20224;-86
2021/10/30 04:47:19;;;;;;;7.03;6.33;;;3.30;98.40;;;;;;5060862;28;20233;-86
2021/10/30 04:49:47;;;;;;;6.67;5.93;;;3.50;98.10;;;;;;5063383;28;20225;-86
2021/10/30 04:52:14;;;;;;;11.20;6.90;;;3.70;97.90;;;;;;5056246;28;20229;-86
2021/10/30 04:54:42;;;;;;;7.17;6.27;;;3.80;97.50;;;;;;5050535;28;20202;-86
2021/10/30 04:57:09;;;;;;;7.47;6.20;;;3.80;97.40;;;;;;5055301;28;20401;-86
2021/10/30 04:59:36;;;;;;;7.30;6.60;;;3.90;96.90;;;;;;5058162;28;20881;-86
2021/10/30 05:02:04;;;;;;;11.57;6.83;;;3.90;96.40;;;;;;5052481;28;20669;-86
2021/10/30 05:04:32;;;;;;;10.27;7.03;;;3.80;96.50;;;;;;5057381;28;20209;-87
2021/10/30 05:07:00;;;;;;;15.83;7.77;;;3.90;96.50;;;;;;5056333;28;20202;-86
2021/10/30 05:09:26;;;;;;;22.77;8.60;;;3.90;96.60;;;;;;5047008;28;20675;-86
2021/10/30 05:11:53;;;;;;;17.87;8.80;;;3.80;96.60;;;;;;5050229;28;20212;-86
2021/10/30 05:14:21;;;;;;;28.03;8.77;;;3.80;97.90;;;;;;5053873;28;20213;-87
2021/10/30 05:16:48;;;;;;;24.73;8.90;;;3.90;98.00;;;;;;5047390;28;20201;-86
2021/10/30 05:19:15;;;;;;;55.40;10.73;;;3.80;97.70;;;;;;5055394;28;20225;-88
2021/10/30 05:21:44;;;;;;;14.90;9.17;;;3.70;97.80;;;;;;5043636;28;20575;-87
2021/10/30 05:24:12;;;;;;;25.50;9.60;;;3.90;98.90;;;;;;5032531;28;20367;-87
2021/10/30 05:26:39;;;;;;;25.10;9.53;;;4.00;98.60;;;;;;5044283;28;20252;-87
2021/10/30 05:29:06;;;;;;;31.50;9.73;;;4.10;98.30;;;;;;5042512;28;20222;-87
2021/10/30 05:31:33;;;;;;;21.70;9.70;;;4.20;98.20;;;;;;5039414;28;20202;-85
2021/10/30 05:34:00;;;;;;;60.13;10.70;;;4.20;98.30;;;;;;5040572;28;20457;-87
2021/10/30 05:36:30;;;;;;;15.07;9.23;;;4.30;97.90;;;;;;5034705;28;20220;-87
2021/10/30 05:38:58;;;;;;;37.97;8.23;;;4.30;98.00;;;;;;5045684;28;20810;-87
2021/10/30 05:41:27;;;;;;;83.70;10.40;;;4.20;97.60;;;;;;5045918;28;20206;-87
2021/10/30 05:43:54;;;;;;;27.80;8.77;;;4.20;97.60;;;;;;5047548;28;20251;-87
2021/10/30 05:46:21;;;;;;;56.00;9.13;;;4.00;97.50;;;;;;5048353;28;20218;-87
2021/10/30 05:48:48;;;;;;;33.40;9.40;;;4.00;98.00;;;;;;5047595;28;20225;-87
2021/10/30 05:51:15;;;;;;;59.80;9.30;;;4.20;98.00;;;;;;5044026;28;20292;-87
2021/10/30 05:53:42;;;;;;;40.47;9.27;;;4.10;97.70;;;;;;5044255;28;20252;-87
2021/10/30 05:56:10;;;;;;;48.47;10.87;;;4.20;97.90;;;;;;5041838;28;20198;-87
2021/10/30 05:58:37;;;;;;;61.27;10.87;;;4.00;97.40;;;;;;5052641;28;20226;-87
2021/10/30 06:01:04;;;;;;;44.90;9.80;;;3.80;97.30;;;;;;5044783;28;20264;-86
2021/10/30 06:03:31;;;;;;;43.57;8.93;;;3.70;97.70;;;;;;5042854;28;20662;-87
2021/10/30 06:05:58;;;;;;;22.73;9.00;;;3.60;98.30;;;;;;5043774;28;20229;-86
2021/10/30 06:08:26;;;;;;;21.90;8.73;;;3.70;98.30;;;;;;5043373;28;20221;-86
2021/10/30 06:10:53;;;;;;;30.83;8.50;;;3.70;97.90;;;;;;5042805;28;20285;-86
2021/10/30 06:13:22;;;;;;;22.67;8.37;;;3.90;97.90;;;;;;5038883;28;20230;-87
2021/10/30 06:15:49;;;;;;;27.37;8.10;;;3.70;97.20;;;;;;5039825;28;20206;-85
2021/10/30 06:18:16;;;;;;;58.03;9.77;;;3.70;96.90;;;;;;5040612;28;20949;-86
2021/10/30 06:20:43;;;;;;;106.97;10.97;;;3.50;96.60;;;;;;5040375;28;20219;-86
2021/10/30 06:23:11;;;;;;;124.10;11.33;;;3.30;97.30;;;;;;5042129;28;20222;-86
2021/10/30 06:25:38;;;;;;;67.40;10.50;;;3.10;97.20;;;;;;5044755;28;20310;-86
2021/10/30 06:28:05;;;;;;;62.23;10.03;;;3.00;97.80;;;;;;5046421;28;20252;-86
2021/10/30 06:30:34;;;;;;;48.53;9.33;;;3.00;97.80;;;;;;5048287;28;20202;-87
2021/10/30 06:33:01;;;;;;;11.43;7.83;;;2.80;97.70;;;;;;5041462;28;20257;-86
2021/10/30 06:35:28;;;;;;;27.00;8.57;;;2.90;98.60;;;;;;5038288;28;20205;-86
2021/10/30 06:37:56;;;;;;;57.17;9.17;;;3.10;98.10;;;;;;5044082;28;20230;-86
2021/10/30 06:40:23;;;;;;;9.67;8.07;;;3.20;97.30;;;;;;5046429;28;20198;-86
2021/10/30 06:42:50;;;;;;;17.90;8.80;;;3.30;97.60;;;;;;5045740;28;20222;-86
2021/10/30 06:45:17;;;;;;;52.77;8.77;;;3.50;97.60;;;;;;5040100;28;20256;-86
2021/10/30 06:47:45;;;;;;;45.90;8.17;;;3.50;96.70;;;;;;5041214;28;20232;-86
2021/10/30 06:50:20;;;;;;;27.00;12.77;;;3.40;96.20;;;;;;5047556;28;20241;-86
2021/10/30 06:52:49;;;;;;;10.83;8.07;;;3.30;96.70;;;;;;5043721;28;20319;-86
2021/10/30 06:55:16;;;;;;;12.37;7.33;;;3.50;97.20;;;;;;5046926;28;20293;-86
2021/10/30 06:57:43;;;;;;;12.80;9.10;;;3.50;96.30;;;;;;5042782;28;20634;-84
2021/10/30 07:00:11;;;;;;;11.03;7.97;;;3.60;96.20;;;;;;5040950;28;20570;-86
2021/10/30 07:02:38;;;;;;;12.00;7.47;;;3.70;95.90;;;;;;5038056;28;20226;-86
2021/10/30 07:05:08;;;;;;;25.33;7.17;;;3.90;95.30;;;;;;5038743;28;20212;-87
2021/10/30 07:07:35;;;;;;;28.47;7.53;;;3.80;94.80;;;;;;5039840;28;20233;-85
2021/10/30 07:10:09;;;;;;;8.33;7.20;;;3.60;94.80;;;;;;5038615;28;20210;-92
2021/10/30 07:12:38;;;;;;;12.83;7.43;;;3.70;96.00;;;;;;5039216;28;20283;-85
2021/10/30 07:15:06;;;;;;;16.27;7.10;;;3.60;95.80;;;;;;5044206;28;20202;-84
2021/10/30 07:17:33;;;;;;;9.73;6.53;;;3.50;95.80;;;;;;5042714;28;20224;-83
2021/10/30 07:19:59;;;;;;;9.67;7.10;;;3.60;96.10;;;;;;5043561;28;20198;-84
2021/10/30 07:22:28;;;;;;;9.50;7.50;;;3.60;96.10;;;;;;5041987;28;20635;-85
2021/10/30 07:24:54;;;;;;;12.53;7.00;;;3.90;96.30;;;;;;5040629;28;20202;-84
2021/10/30 07:27:22;;;;;;;7.50;6.30;;;4.00;95.70;;;;;;5048233;28;20313;-86
2021/10/30 07:29:49;;;;;;;8.90;6.43;;;4.00;94.90;;;;;;5043726;28;20201;-85
2021/10/30 07:32:23;;;;;;;7.73;6.87;;;4.00;95.20;;;;;;5052633;28;20229;-87
2021/10/30 07:34:50;;;;;;;7.00;6.20;;;4.20;95.50;;;;;;5051615;28;20609;-85
2021/10/30 07:37:17;;;;;;;6.90;6.20;;;4.60;95.00;;;;;;5052648;28;20585;-86
2021/10/30 07:39:45;;;;;;;7.13;6.43;;;4.80;94.30;;;;;;5050919;28;20291;-84
2021/10/30 07:42:12;;;;;;;7.60;6.80;;;5.00;93.60;;;;;;5041810;28;20209;-86
2021/10/30 07:44:40;;;;;;;7.70;6.37;;;4.90;93.50;;;;;;5050037;28;20194;-87
2021/10/30 07:47:10;;;;;;;7.07;6.47;;;4.70;93.10;;;;;;5051577;28;20214;-84
2021/10/30 07:49:39;;;;;;;6.97;6.33;;;4.80;93.70;;;;;;5049380;28;20245;-87
2021/10/30 07:52:08;;;;;;;8.63;7.20;;;4.80;94.10;;;;;;5038117;28;20197;-89
2021/10/30 07:54:37;;;;;;;12.93;7.80;;;4.90;94.00;;;;;;5051235;28;20198;-86
2021/10/30 07:57:08;;;;;;;8.00;7.20;;;4.80;93.80;;;;;;5051421;28;20828;-86
2021/10/30 07:59:35;;;;;;;9.13;7.07;;;4.80;94.00;;;;;;5049468;28;20209;-87
2021/10/30 08:02:03;;;;;;;9.57;7.40;;;4.70;93.70;;;;;;5048025;28;20293;-86
2021/10/30 08:04:30;;;;;;;9.13;6.80;;;4.60;94.60;;;;;;5050057;28;20194;-88
2021/10/30 08:06:58;;;;;;;7.53;6.80;;;4.80;95.00;;;;;;5053039;28;20615;-85
2021/10/30 08:09:25;;;;;;;7.40;6.70;;;4.90;95.10;;;;;;5055461;28;20194;-82
2021/10/30 08:11:51;;;;;;;7.20;6.50;;;4.90;95.10;;;;;;5047524;28;20206;-82
2021/10/30 08:14:25;;;;;;;7.20;6.50;;;4.90;95.00;;;;;;5052854;28;20217;-82
2021/10/30 08:16:51;;;;;;;8.60;7.07;;;5.00;95.10;;;;;;5048223;28;20195;-83
2021/10/30 08:19:18;;;;;;;6.80;6.20;;;5.00;95.10;;;;;;5044678;28;20224;-82
2021/10/30 08:21:45;;;;;;;6.70;6.10;;;5.00;95.10;;;;;;5042718;28;20198;-89
2021/10/30 08:24:12;;;;;;;8.57;6.60;;;5.20;95.40;;;;;;5047887;28;20225;-82
2021/10/30 08:26:39;;;;;;;7.10;6.40;;;5.20;95.10;;;;;;5049526;28;20222;-82
2021/10/30 08:29:07;;;;;;;8.17;6.37;;;5.40;95.20;;;;;;5046748;28;20227;-82
2021/10/30 08:31:35;;;;;;;7.33;6.40;;;5.40;95.20;;;;;;5046292;28;20284;-86
2021/10/30 08:34:02;;;;;;;11.50;6.30;;;5.70;95.50;;;;;;5052813;28;20225;-85
2021/10/30 08:36:30;;;;;;;8.38;6.82;;;6.20;94.60;;;;;;5052611;28;20208;-84
2021/10/30 08:38:58;;;;;;;5.40;4.85;;;7.40;92.50;;;;;;5054246;28;20222;-88
2021/10/30 08:41:25;;;;;;;4.93;4.53;;;8.70;82.10;;;;;;5060307;28;20296;-84
2021/10/30 08:47:22;;;;;;;5.30;4.57;;;10.50;62.00;;;;;;5060137;28;20273;-87
2021/10/30 08:49:50;;;;;;;5.13;4.72;;;11.00;59.50;;;;;;5041368;28;20236;-87
2021/10/30 08:52:17;;;;;;;4.82;4.43;;;11.10;56.10;;;;;;5038739;28;20273;-86
2021/10/30 08:54:43;;;;;;;4.80;4.40;;;10.80;54.40;;;;;;5040535;28;20217;-87
2021/10/30 08:57:10;;;;;;;5.10;4.60;;;11.00;53.70;;;;;;5032171;28;20206;-85
2021/10/30 08:59:39;;;;;;;4.53;4.18;;;11.70;48.40;;;;;;5035572;28;20213;-89
2021/10/30 09:02:08;;;;;;;4.90;4.32;;;13.30;44.10;;;;;;5039884;28;20194;-86
2021/10/30 09:04:36;;;;;;;4.93;4.53;;;14.50;37.40;;;;;;5044757;28;20229;-83
2021/10/30 09:07:08;;;;;;;4.53;4.13;;;16.10;31.60;;;;;;5033244;28;20569;-84
2021/10/30 09:09:37;;;;;;;5.65;4.30;;;17.10;29.60;;;;;;5040928;28;20222;-82
2021/10/30 09:12:23;;;;;;;5.97;4.50;;;18.10;26.40;;;;;;5037335;28;20242;-80
2021/10/30 09:14:52;;;;;;;4.90;4.50;;;18.50;26.00;;;;;;5042576;28;21022;-81
2021/10/30 09:17:22;;;;;;;4.32;3.92;;;18.40;23.90;;;;;;5044507;28;20217;-82
2021/10/30 09:19:52;;;;;;;4.50;4.10;;;16.10;28.80;;;;;;5036838;28;20237;-85
2021/10/30 09:22:21;;;;;;;4.18;3.88;;;16.60;29.20;;;;;;5032530;28;20217;-80
2021/10/30 09:24:57;;;;;;;8.50;7.70;;;18.00;27.40;;;;;;5037224;28;20202;-81
2021/10/30 09:27:43;;;;;;;6.20;4.50;;;17.30;26.60;;;;;;5039654;28;20220;-81
2021/10/30 09:30:20;;;;;;;4.85;4.45;;;16.30;29.00;;;;;;5043957;28;20220;-83
2021/10/30 09:32:52;;;;;;;4.70;4.30;;;16.40;29.00;;;;;;5042659;28;20217;-82
2021/10/30 09:35:29;;;;;;;4.50;4.10;;;16.90;29.50;;;;;;5045377;28;20232;-85
2021/10/30 09:37:56;;;;;;;4.80;4.40;;;15.90;28.60;;;;;;5039862;28;20208;-88
2021/10/30 09:40:25;;;;;;;4.55;4.25;;;16.70;29.30;;;;;;5033240;28;20221;-82
2021/10/30 09:43:24;;;;;;;4.47;3.85;;;17.90;29.40;;;;;;5044349;28;20206;-82
2021/10/30 09:45:53;;;;;;;5.35;4.65;;;19.80;23.30;;;;;;5043726;28;20205;-86
2021/10/30 09:48:23;;;;;;;4.45;4.05;;;20.50;21.90;;;;;;5021798;28;20228;-84
2021/10/30 09:50:58;;;;;;;4.80;4.20;;;20.70;20.50;;;;;;5033706;28;20220;-87
2021/10/30 09:53:28;;;;;;;4.53;3.88;;;20.70;20.80;;;;;;5042756;28;20189;-87
2021/10/30 09:55:58;;;;;;;4.00;3.70;;;20.80;20.90;;;;;;5071578;28;20259;-90
2021/10/30 09:58:31;;;;;;;3.97;3.67;;;20.30;21.00;;;;;;5056092;28;20752;-88
2021/10/30 10:01:00;;;;;;;4.15;3.85;;;20.40;21.00;;;;;;5048618;28;20233;-87
2021/10/30 10:03:31;;;;;;;4.15;3.80;;;20.80;20.90;;;;;;5048051;28;20209;-87
2021/10/30 10:06:02;;;;;;;5.78;3.70;;;20.60;21.20;;;;;;5013848;28;20596;-87
2021/10/30 10:08:29;;;;;;;4.22;3.63;;;20.50;21.50;;;;;;5040054;28;20229;-88
2021/10/30 10:10:58;;;;;;;4.20;3.80;;;20.40;22.00;;;;;;5048179;28;20271;-86
2021/10/30 10:13:26;;;;;;;4.03;3.72;;;20.40;21.70;;;;;;5046483;28;20214;-87
2021/10/30 10:15:53;;;;;;;3.97;3.60;;;19.60;23.50;;;;;;5046103;28;20304;-89
2021/10/30 10:18:29;;;;;;;4.20;3.90;;;20.40;22.50;;;;;;5053284;28;20205;-88
2021/10/30 10:20:58;;;;;;;4.25;3.67;;;19.80;23.00;;;;;;5041460;28;20226;-88
2021/10/30 10:23:44;;;;;;;4.15;3.78;;;19.00;25.10;;;;;;5045222;28;20619;-87
2021/10/30 10:26:13;;;;;;;3.92;3.63;;;19.50;24.10;;;;;;5042998;28;20229;-88
2021/10/30 10:28:41;;;;;;;3.70;3.40;;;19.90;24.30;;;;;;5046700;28;20228;-88
2021/10/30 10:31:16;;;;;;;3.95;3.65;;;19.30;25.20;;;;;;5054920;28;20221;-86
2021/10/30 10:33:43;;;;;;;4.00;3.70;;;19.80;24.50;;;;;;5054696;28;20193;-89
2021/10/30 10:36:38;;;;;;;3.58;3.28;;;18.30;26.30;;;;;;5053223;28;20312;-88
2021/10/30 10:39:17;;;;;;;3.72;3.40;;;18.80;25.80;;;;;;5044859;28;20213;-89
2021/10/30 10:41:56;;;;;;;4.03;3.63;;;19.80;25.20;;;;;;5034902;28;20202;-88
2021/10/30 10:45:05;;;;;;;4.63;3.83;;;20.30;23.90;;;;;;5045535;28;20197;-87
2021/10/30 10:48:16;;;;;;;4.63;4.03;;;20.50;22.90;;;;;;5034308;28;20764;-87
2021/10/30 10:50:51;;;;;;;3.80;3.50;;;20.70;23.00;;;;;;5050184;28;20664;-86
2021/10/30 10:53:20;;;;;;;4.00;3.70;;;20.50;21.70;;;;;;5045157;28;20211;-85
2021/10/30 10:56:15;;;;;;;3.97;3.67;;;19.90;23.80;;;;;;5056572;28;20557;-87
2021/10/30 10:59:13;;;;;;;6.25;5.00;;;18.50;27.50;;;;;;5046187;28;20198;-87
2021/10/30 11:01:41;;;;;;;5.38;4.30;;;17.70;30.10;;;;;;5050743;28;20221;-86
2021/10/30 11:04:13;;;;;;;4.75;4.35;;;17.20;34.20;;;;;;5048265;28;20621;-89
2021/10/30 11:06:45;;;;;;;4.88;4.40;;;16.70;31.90;;;;;;5056557;28;20208;-85
2021/10/30 11:28:46;;;;;;;4.57;4.18;;;15.90;36.70;;;;;;5092027;28;20282;-90
2021/10/30 11:31:15;;;;;;;4.68;4.28;;;16.20;36.80;;;;;;5093506;28;20230;-87
2021/10/30 11:33:43;;;;;;;5.00;4.50;;;16.10;35.40;;;;;;5092015;28;20189;-87
2021/10/30 11:36:11;;;;;;;4.97;4.45;;;16.20;35.80;;;;;;5094835;28;20708;-88
2021/10/30 11:38:40;;;;;;;4.60;4.20;;;16.10;35.40;;;;;;5093239;28;20596;-91
2021/10/30 11:41:39;;;;;;;4.95;4.47;;;16.20;35.10;;;;;;5085806;28;20224;-88
2021/10/30 11:44:10;;;;;;;4.63;4.22;;;16.20;35.80;;;;;;5082835;28;20218;-89
2021/10/30 11:46:39;;;;;;;5.00;4.40;;;16.30;35.20;;;;;;5090487;28;20205;-87
2021/10/30 11:49:07;;;;;;;5.47;4.10;;;15.90;36.00;;;;;;5094654;28;20605;-88
2021/10/30 11:51:51;;;;;;;4.65;4.25;;;16.20;35.10;;;;;;5099198;28;20628;-88
2021/10/30 11:57:05;;;;;;;4.28;3.78;;;16.40;34.80;;;;;;5071200;28;20621;-94
2021/10/30 12:06:09;;;;;;;31.58;17.08;;;16.40;35.40;;;;;;5039736;28;20214;-92
2021/10/30 12:09:13;;;;;;;7.00;4.82;;;16.50;35.70;;;;;;5032654;28;20226;-92
2021/10/30 12:12:22;;;;;;;6.22;3.97;;;16.20;36.60;;;;;;5059638;28;20219;-92
2021/10/30 12:14:53;;;;;;;6.53;5.15;;;16.60;34.90;;;;;;5073073;28;20229;-94
2021/10/30 12:17:25;;;;;;;6.32;4.53;;;16.80;34.90;;;;;;5075572;28;20560;-92
2021/10/30 12:19:55;;;;;;;6.47;4.57;;;16.90;34.50;;;;;;5070749;28;20308;-90
2021/10/30 12:22:25;;;;;;;7.03;4.95;;;16.90;33.50;;;;;;5065473;28;20202;-90
2021/10/30 12:25:00;;;;;;;5.88;4.40;;;16.90;33.70;;;;;;5073063;28;20231;-91
2021/10/30 12:27:27;;;;;;;4.47;4.07;;;16.90;33.40;;;;;;5061347;28;20305;-90
2021/10/30 12:33:23;;;;;;;6.15;4.38;;;16.70;33.00;;;;;;5056427;28;20559;-94
2021/10/30 12:39:17;;;;;;;7.28;4.18;;;16.70;34.30;;;;;;5072294;28;20205;-92
2021/10/30 12:41:44;;;;;;;4.60;4.20;;;16.80;33.20;;;;;;5049711;28;20208;-93
2021/10/30 12:44:11;;;;;;;6.30;4.40;;;16.70;33.20;;;;;;5055421;28;20658;-92
2021/10/30 12:46:52;;;;;;;6.75;4.35;;;16.70;34.20;;;;;;5064284;28;20532;-92
2021/10/30 12:49:28;;;;;;;5.40;4.90;;;16.80;34.60;;;;;;5070197;28;20715;-92
2021/10/30 12:52:08;;;;;;;5.05;4.55;;;16.50;34.90;;;;;;5076906;28;20227;-92
2021/10/30 12:54:36;;;;;;;5.47;4.75;;;16.50;35.40;;;;;;5075381;28;20227;-93
2021/10/30 12:57:03;;;;;;;5.25;4.75;;;16.40;36.30;;;;;;5066544;28;20334;-92
2021/10/30 12:59:38;;;;;;;5.22;4.78;;;16.40;36.80;;;;;;5066624;28;20221;-92
2021/10/30 13:02:06;;;;;;;5.50;4.90;;;16.40;36.20;;;;;;5076766;28;20221;-92
2021/10/30 13:08:19;;;;;;;8.88;6.00;;;16.10;36.50;;;;;;5075092;28;20209;-92
2021/10/30 13:10:48;;;;;;;8.52;7.68;;;16.10;36.30;;;;;;5075987;28;20241;-94
2021/10/30 13:28:44;;;;;;;7.50;6.80;;;15.30;43.00;;;;;;4994183;28;20232;-92
2021/10/30 13:31:11;;;;;;;7.93;7.00;;;15.20;44.50;;;;;;4998960;28;20299;-95
2021/10/30 13:33:38;;;;;;;63.72;49.83;;;15.10;45.00;;;;;;4997667;28;20196;-93
2021/10/30 13:46:46;;;;;;;9.00;7.78;;;14.50;50.90;;;;;;4976552;28;20210;-95
2021/10/30 13:49:33;;;;;;;15.00;10.75;;;14.40;51.50;;;;;;4968082;28;20543;-94
2021/10/30 14:49:19;;;;;;;12.32;9.30;;;12.00;75.20;;;;;;5005887;28;20669;-94
2021/10/30 14:51:46;;;;;;;10.45;9.20;;;11.90;75.80;;;;;;5017921;28;20199;-90
2021/10/30 14:54:17;;;;;;;12.50;11.20;;;11.90;75.10;;;;;;5031339;28;20234;-88
2021/10/30 14:56:44;;;;;;;10.45;9.35;;;11.90;76.40;;;;;;5013073;28;20238;-89
2021/10/30 14:59:11;;;;;;;9.73;8.73;;;11.90;77.40;;;;;;5009682;28;20267;-89
2021/10/30 15:01:43;;;;;;;9.57;8.57;;;11.70;79.10;;;;;;5011836;28;20203;-90
2021/10/30 15:04:11;;;;;;;10.32;9.27;;;11.60;79.50;;;;;;5008487;28;20678;-88